createdAt,value
2019-06-26T00:00:06.621Z,27.9
2019-06-26T00:01:06.453Z,27.9
2019-06-26T00:02:06.779Z,27.9
2019-06-26T00:03:06.197Z,27.9
2019-06-26T00:04:06.717Z,27.9
2019-06-26T00:05:06.306Z,27.9
2019-06-26T00:06:06.607Z,27.9
2019-06-26T00:07:05.947Z,27.9
2019-06-26T00:08:06.283Z,28
2019-06-26T00:09:06.880Z,28
2019-06-26T00:10:06.563Z,27.9
2019-06-26T00:11:06.948Z,28
2019-06-26T00:12:06.255Z,28
2019-06-26T00:13:06.656Z,28
2019-06-26T00:14:06.223Z,28
2019-06-26T00:15:06.728Z,28
2019-06-26T00:16:06.341Z,28
2019-06-26T00:17:06.707Z,28
2019-06-26T00:18:06.017Z,28
2019-06-26T00:19:06.342Z,28
2019-06-26T00:20:06.969Z,28
2019-06-26T00:21:06.342Z,28.1
2019-06-26T00:22:06.704Z,28.1
2019-06-26T00:23:06.026Z,28
2019-06-26T00:24:06.547Z,28
2019-06-26T00:25:06.240Z,28
2019-06-26T00:26:06.597Z,28
2019-06-26T00:27:05.934Z,28
2019-06-26T00:28:06.223Z,28
2019-06-26T00:29:06.538Z,28
2019-06-26T00:30:07.076Z,28
2019-06-26T00:31:06.446Z,28
2019-06-26T00:32:06.763Z,27.9
2019-06-26T00:33:06.162Z,27.9
2019-06-26T00:34:06.557Z,27.9
2019-06-26T00:35:07.046Z,27.8
2019-06-26T00:36:06.431Z,27.8
2019-06-26T00:37:06.794Z,27.7
2019-06-26T00:38:06.115Z,27.8
2019-06-26T00:39:06.584Z,27.8
2019-06-26T00:40:07.174Z,27.8
2019-06-26T00:41:06.007Z,27.8
2019-06-26T00:42:06.311Z,27.8
2019-06-26T00:43:06.554Z,27.8
2019-06-26T00:44:06.840Z,27.8
2019-06-26T00:45:06.300Z,27.8
2019-06-26T00:46:06.739Z,27.8
2019-06-26T00:47:06.087Z,27.8
2019-06-26T00:48:06.537Z,27.7
2019-06-26T00:49:05.920Z,27.7
2019-06-26T00:50:06.520Z,27.8
2019-06-26T00:51:05.992Z,27.8
2019-06-26T00:52:06.284Z,27.8
2019-06-26T00:53:06.655Z,27.8
2019-06-26T00:54:06.178Z,27.9
2019-06-26T00:55:06.599Z,27.9
2019-06-26T00:56:06.054Z,27.9
2019-06-26T00:57:06.402Z,27.8
2019-06-26T00:58:06.630Z,27.8
2019-06-26T00:59:06.036Z,27.8
2019-06-26T01:00:06.696Z,27.8
2019-06-26T01:01:06.555Z,27.7
2019-06-26T01:02:06.893Z,27.7
2019-06-26T01:03:06.170Z,27.7
2019-06-26T01:04:06.450Z,27.6
2019-06-26T01:05:06.883Z,27.6
2019-06-26T01:06:06.307Z,27.6
2019-06-26T01:07:06.585Z,27.5
2019-06-26T01:08:06.845Z,27.5
2019-06-26T01:09:06.255Z,27.5
2019-06-26T01:10:06.919Z,27.5
2019-06-26T01:11:06.250Z,27.5
2019-06-26T01:12:06.596Z,27.4
2019-06-26T01:13:05.971Z,27.4
2019-06-26T01:14:06.288Z,27.5
2019-06-26T01:15:06.709Z,27.5
2019-06-26T01:16:06.676Z,27.5
2019-06-26T01:17:06.104Z,27.5
2019-06-26T01:18:06.419Z,27.5
2019-06-26T01:19:06.732Z,27.5
2019-06-26T01:20:06.356Z,27.4
2019-06-26T01:21:06.621Z,27.4
2019-06-26T01:22:06.178Z,27.4
2019-06-26T01:23:06.482Z,27.3
2019-06-26T01:24:06.865Z,27.3
2019-06-26T01:25:06.334Z,27.3
2019-06-26T01:26:06.660Z,27.3
2019-06-26T01:27:06.114Z,27.3
2019-06-26T01:28:06.432Z,27.2
2019-06-26T01:29:06.682Z,27.2
2019-06-26T01:30:06.623Z,27.2
2019-06-26T01:31:06.016Z,27.2
2019-06-26T01:32:06.391Z,27.3
2019-06-26T01:33:06.642Z,27.3
2019-06-26T01:34:05.985Z,27.3
2019-06-26T01:35:06.479Z,27.3
2019-06-26T01:36:06.699Z,27.3
2019-06-26T01:37:05.996Z,27.3
2019-06-26T01:38:06.385Z,27.3
2019-06-26T01:39:06.859Z,27.3
2019-06-26T01:40:06.624Z,27.3
2019-06-26T01:41:05.972Z,27.2
2019-06-26T01:42:06.335Z,27.2
2019-06-26T01:43:06.791Z,27.2
2019-06-26T01:44:17.349Z,27.2
2019-06-26T01:45:06.891Z,27.2
2019-06-26T01:46:06.167Z,27.2
2019-06-26T01:47:06.467Z,27.2
2019-06-26T01:48:06.841Z,27.1
2019-06-26T01:49:06.209Z,27.1
2019-06-26T01:50:06.803Z,27.1
2019-06-26T01:51:06.195Z,27
2019-06-26T01:52:06.464Z,27
2019-06-26T01:53:06.859Z,27
2019-06-26T01:54:06.167Z,27
2019-06-26T01:55:06.644Z,27.1
2019-06-26T01:56:05.938Z,27.1
2019-06-26T01:57:06.230Z,27.1
2019-06-26T01:58:06.676Z,27.1
2019-06-26T01:59:06.019Z,27.1
2019-06-26T02:00:06.802Z,27.1
2019-06-26T02:01:06.161Z,27.1
2019-06-26T02:02:06.487Z,27
2019-06-26T02:03:06.857Z,27
2019-06-26T02:04:06.166Z,27
2019-06-26T02:05:06.658Z,27
2019-06-26T02:06:05.998Z,26.9
2019-06-26T02:07:06.419Z,26.9
2019-06-26T02:08:06.760Z,26.9
2019-06-26T02:09:06.356Z,26.9
2019-06-26T02:10:06.875Z,26.9
2019-06-26T02:11:06.175Z,26.8
2019-06-26T02:12:06.487Z,26.8
2019-06-26T02:13:06.940Z,26.8
2019-06-26T02:14:06.224Z,26.8
2019-06-26T02:15:06.700Z,26.7
2019-06-26T02:16:06.018Z,26.7
2019-06-26T02:17:06.393Z,26.8
2019-06-26T02:18:06.784Z,26.7
2019-06-26T02:19:06.056Z,26.7
2019-06-26T02:20:06.673Z,26.7
2019-06-26T02:21:05.974Z,26.7
2019-06-26T02:22:06.285Z,26.6
2019-06-26T02:23:06.760Z,26.6
2019-06-26T02:24:06.081Z,26.6
2019-06-26T02:25:06.553Z,26.6
2019-06-26T02:26:06.849Z,26.5
2019-06-26T02:27:06.113Z,26.5
2019-06-26T02:28:06.456Z,26.5
2019-06-26T02:29:06.749Z,26.5
2019-06-26T02:30:06.281Z,26.5
2019-06-26T02:31:06.445Z,26.4
2019-06-26T02:32:06.799Z,26.4
2019-06-26T02:33:06.118Z,26.4
2019-06-26T02:34:06.443Z,26.4
2019-06-26T02:35:12.276Z,26.4
2019-06-26T02:36:06.557Z,26.4
2019-06-26T02:37:05.915Z,26.4
2019-06-26T02:38:06.239Z,26.3
2019-06-26T02:39:06.851Z,26.3
2019-06-26T02:40:06.453Z,26.3
2019-06-26T02:41:06.056Z,26.3
2019-06-26T02:42:06.415Z,26.3
2019-06-26T02:43:10.131Z,26.3
2019-06-26T02:44:06.505Z,26.3
2019-06-26T02:45:07.080Z,26.3
2019-06-26T02:46:06.565Z,26.3
2019-06-26T02:47:22.510Z,26.2
2019-06-26T02:48:06.869Z,26.2
2019-06-26T02:49:06.183Z,26.2
2019-06-26T02:50:06.795Z,26.2
2019-06-26T02:51:06.215Z,26.2
2019-06-26T02:52:06.509Z,26.2
2019-06-26T02:53:06.821Z,26.2
2019-06-26T02:54:06.153Z,26.2
2019-06-26T02:55:06.594Z,26.2
2019-06-26T02:56:06.057Z,26.2
2019-06-26T02:57:06.384Z,26.1
2019-06-26T02:58:06.687Z,26.1
2019-06-26T02:59:06.129Z,26.1
2019-06-26T03:00:06.773Z,26.1
2019-06-26T03:01:06.201Z,26.1
2019-06-26T03:02:06.509Z,26.1
2019-06-26T03:03:06.858Z,26.1
2019-06-26T03:04:06.243Z,26.1
2019-06-26T03:05:06.678Z,26.1
2019-06-26T03:06:05.987Z,26
2019-06-26T03:07:06.240Z,26
2019-06-26T03:08:06.577Z,26
2019-06-26T03:09:07.145Z,26
2019-06-26T03:10:06.772Z,26
2019-06-26T03:11:06.098Z,26
2019-06-26T03:12:06.349Z,26
2019-06-26T03:13:06.606Z,26
2019-06-26T03:14:06.981Z,26
2019-06-26T03:15:11.950Z,26
2019-06-26T03:16:06.232Z,26
2019-06-26T03:17:06.525Z,26
2019-06-26T03:18:06.787Z,25.9
2019-06-26T03:19:06.076Z,25.9
2019-06-26T03:20:06.753Z,25.9
2019-06-26T03:21:06.068Z,25.9
2019-06-26T03:22:06.366Z,25.9
2019-06-26T03:23:06.675Z,25.9
2019-06-26T03:24:06.060Z,25.9
2019-06-26T03:25:06.605Z,25.9
2019-06-26T03:26:06.857Z,25.9
2019-06-26T03:27:08.983Z,25.9
2019-06-26T03:28:06.493Z,25.8
2019-06-26T03:29:06.772Z,25.8
2019-06-26T03:30:06.544Z,25.8
2019-06-26T03:31:06.122Z,25.9
2019-06-26T03:32:06.460Z,25.9
2019-06-26T03:33:06.796Z,25.9
2019-06-26T03:34:06.178Z,25.9
2019-06-26T03:35:06.811Z,26
2019-06-26T03:36:06.119Z,26
2019-06-26T03:37:06.394Z,26.1
2019-06-26T03:38:06.686Z,26.1
2019-06-26T03:39:06.211Z,26.2
2019-06-26T03:40:06.966Z,26.2
2019-06-26T03:41:06.406Z,26.2
2019-06-26T03:42:06.798Z,26.2
2019-06-26T03:43:06.094Z,26.3
2019-06-26T03:44:06.362Z,26.3
2019-06-26T03:45:07.194Z,26.3
2019-06-26T03:46:06.780Z,26.3
2019-06-26T03:47:06.148Z,26.3
2019-06-26T03:48:06.448Z,26.4
2019-06-26T03:49:06.737Z,26.3
2019-06-26T03:50:06.565Z,26.4
2019-06-26T03:51:06.893Z,26.4
2019-06-26T03:52:06.065Z,26.4
2019-06-26T03:53:06.345Z,26.4
2019-06-26T03:54:06.612Z,26.4
2019-06-26T03:55:07.090Z,26.4
2019-06-26T03:56:06.504Z,26.4
2019-06-26T03:57:05.963Z,26.4
2019-06-26T03:58:06.315Z,26.4
2019-06-26T03:59:06.663Z,26.4
2019-06-26T04:00:06.348Z,26.4
2019-06-26T04:01:06.149Z,26.4
2019-06-26T04:02:06.437Z,26.4
2019-06-26T04:03:06.725Z,26.4
2019-06-26T04:04:06.007Z,26.4
2019-06-26T04:05:06.420Z,26.4
2019-06-26T04:06:06.268Z,26.4
2019-06-26T04:07:06.560Z,26.4
2019-06-26T04:08:06.860Z,26.4
2019-06-26T04:09:06.251Z,26.4
2019-06-26T04:10:07.109Z,26.4
2019-06-26T04:11:07.493Z,26.4
2019-06-26T04:12:06.775Z,26.4
2019-06-26T04:13:06.107Z,26.4
2019-06-26T04:14:06.395Z,26.4
2019-06-26T04:15:06.974Z,26.4
2019-06-26T04:16:06.272Z,26.4
2019-06-26T04:17:06.541Z,26.4
2019-06-26T04:18:06.101Z,26.4
2019-06-26T04:19:06.378Z,26.3
2019-06-26T04:20:07.027Z,26.3
2019-06-26T04:21:06.377Z,26.3
2019-06-26T04:22:06.669Z,26.3
2019-06-26T04:23:05.929Z,26.3
2019-06-26T04:24:06.177Z,26.3
2019-06-26T04:25:06.839Z,26.2
2019-06-26T04:26:06.841Z,26.3
2019-06-26T04:27:06.123Z,26.3
2019-06-26T04:28:09.238Z,26.3
2019-06-26T04:29:06.512Z,26.3
2019-06-26T04:30:07.076Z,26.3
2019-06-26T04:31:06.709Z,26.3
2019-06-26T04:32:06.001Z,26.3
2019-06-26T04:33:06.319Z,26.3
2019-06-26T04:34:06.547Z,26.2
2019-06-26T04:35:06.946Z,26.2
2019-06-26T04:36:06.416Z,26.2
2019-06-26T04:37:06.697Z,26.2
2019-06-26T04:38:06.098Z,26.2
2019-06-26T04:39:06.544Z,26.2
2019-06-26T04:40:07.102Z,26.2
2019-06-26T04:41:06.567Z,26.2
2019-06-26T04:42:06.883Z,26.2
2019-06-26T04:43:06.199Z,26.3
2019-06-26T04:44:06.471Z,26.3
2019-06-26T04:45:07.054Z,26.3
2019-06-26T04:46:06.404Z,26.2
2019-06-26T04:47:06.848Z,26.2
2019-06-26T04:48:10.158Z,26.3
2019-06-26T04:49:06.453Z,26.3
2019-06-26T04:50:07.005Z,26.3
2019-06-26T04:51:06.316Z,26.3
2019-06-26T04:52:06.733Z,26.3
2019-06-26T04:53:06.065Z,26.3
2019-06-26T04:54:06.418Z,26.3
2019-06-26T04:55:06.927Z,26.4
2019-06-26T04:56:06.288Z,26.3
2019-06-26T04:57:06.657Z,26.3
2019-06-26T04:58:05.963Z,26.3
2019-06-26T04:59:06.262Z,26.3
2019-06-26T05:00:07.411Z,26.2
2019-06-26T05:01:06.539Z,26.3
2019-06-26T05:02:06.040Z,26.3
2019-06-26T05:03:06.518Z,26.3
2019-06-26T05:04:06.791Z,26.3
2019-06-26T05:05:06.230Z,26.3
2019-06-26T05:06:06.146Z,26.3
2019-06-26T05:07:06.477Z,26.3
2019-06-26T05:08:06.787Z,26.3
2019-06-26T05:09:06.269Z,26.4
2019-06-26T05:10:06.825Z,26.3
2019-06-26T05:11:06.166Z,26.3
2019-06-26T05:12:06.628Z,26.3
2019-06-26T05:13:06.003Z,26.4
2019-06-26T05:14:06.333Z,26.4
2019-06-26T05:15:06.844Z,26.4
2019-06-26T05:16:21.596Z,26.4
2019-06-26T05:17:06.073Z,26.4
2019-06-26T05:18:06.563Z,26.4
2019-06-26T05:19:06.819Z,26.4
2019-06-26T05:20:06.495Z,26.4
2019-06-26T05:21:05.954Z,26.4
2019-06-26T05:22:06.188Z,26.4
2019-06-26T05:23:06.519Z,26.4
2019-06-26T05:24:06.757Z,26.4
2019-06-26T05:25:06.161Z,26.4
2019-06-26T05:26:06.452Z,26.4
2019-06-26T05:27:06.653Z,26.4
2019-06-26T05:28:09.607Z,26.4
2019-06-26T05:29:06.991Z,26.4
2019-06-26T05:30:06.585Z,26.4
2019-06-26T05:31:06.852Z,26.5
2019-06-26T05:32:06.101Z,26.5
2019-06-26T05:33:06.394Z,26.5
2019-06-26T05:34:09.857Z,26.5
2019-06-26T05:35:06.356Z,26.6
2019-06-26T05:36:06.594Z,26.6
2019-06-26T05:37:06.869Z,26.6
2019-06-26T05:38:06.130Z,26.5
2019-06-26T05:39:06.377Z,26.6
2019-06-26T05:40:06.860Z,26.6
2019-06-26T05:41:06.103Z,26.7
2019-06-26T05:42:09.709Z,26.7
2019-06-26T05:43:06.021Z,26.7
2019-06-26T05:44:06.492Z,26.6
2019-06-26T05:45:07.006Z,26.6
2019-06-26T05:46:06.354Z,26.7
2019-06-26T05:47:10.071Z,26.7
2019-06-26T05:48:06.277Z,26.7
2019-06-26T05:49:06.588Z,26.7
2019-06-26T05:50:07.118Z,26.7
2019-06-26T05:51:05.957Z,26.7
2019-06-26T05:52:06.247Z,26.8
2019-06-26T05:53:06.499Z,26.8
2019-06-26T05:54:06.757Z,26.8
2019-06-26T05:55:06.192Z,26.8
2019-06-26T05:56:06.165Z,26.8
2019-06-26T05:57:06.481Z,26.8
2019-06-26T05:58:06.796Z,26.9
2019-06-26T05:59:06.109Z,26.8
2019-06-26T06:00:06.830Z,26.8
2019-06-26T06:01:06.039Z,26.9
2019-06-26T06:02:06.292Z,26.8
2019-06-26T06:03:06.527Z,26.8
2019-06-26T06:04:06.839Z,26.8
2019-06-26T06:05:06.886Z,26.8
2019-06-26T06:06:06.160Z,26.8
2019-06-26T06:07:06.330Z,26.8
2019-06-26T06:08:06.582Z,26.8
2019-06-26T06:09:06.871Z,26.8
2019-06-26T06:10:06.429Z,26.7
2019-06-26T06:11:06.393Z,26.8
2019-06-26T06:12:06.596Z,26.7
2019-06-26T06:13:06.768Z,26.8
2019-06-26T06:14:06.250Z,26.8
2019-06-26T06:15:06.806Z,26.8
2019-06-26T06:16:09.541Z,26.8
2019-06-26T06:17:06.895Z,26.8
2019-06-26T06:18:06.202Z,26.9
2019-06-26T06:19:06.643Z,26.9
2019-06-26T06:20:06.122Z,26.9
2019-06-26T06:21:06.373Z,26.9
2019-06-26T06:22:06.631Z,26.9
2019-06-26T06:23:05.875Z,26.9
2019-06-26T06:24:06.194Z,26.9
2019-06-26T06:25:06.886Z,26.9
2019-06-26T06:26:06.515Z,26.9
2019-06-26T06:27:06.710Z,26.9
2019-06-26T06:28:11.802Z,26.9
2019-06-26T06:29:13.186Z,27
2019-06-26T06:30:11.216Z,27
2019-06-26T06:32:14.674Z,27
2019-06-26T06:33:06.897Z,27
2019-06-26T06:34:14.292Z,27
2019-06-26T06:36:16.339Z,27
2019-06-26T06:37:07.955Z,27
2019-06-26T06:38:06.357Z,27
2019-06-26T06:39:06.742Z,27
2019-06-26T06:40:06.394Z,27
2019-06-26T06:41:06.191Z,27.1
2019-06-26T06:42:06.371Z,27.1
2019-06-26T06:43:10.498Z,27.1
2019-06-26T06:44:06.851Z,27.1
2019-06-26T06:45:06.389Z,27
2019-06-26T06:46:06.837Z,27
2019-06-26T06:47:10.343Z,27
2019-06-26T06:48:06.578Z,27.1
2019-06-26T06:49:05.846Z,27
2019-06-26T06:50:06.466Z,27.1
2019-06-26T06:51:06.092Z,27.1
2019-06-26T06:52:06.321Z,27.1
2019-06-26T06:53:06.531Z,27.1
2019-06-26T06:54:06.786Z,27.1
2019-06-26T06:55:06.213Z,27.1
2019-06-26T06:56:06.566Z,27.1
2019-06-26T06:57:06.804Z,27.1
2019-06-26T06:58:06.140Z,27.1
2019-06-26T06:59:06.476Z,27.1
2019-06-26T07:00:07.005Z,27.1
2019-06-26T07:01:06.869Z,27.2
2019-06-26T07:02:06.195Z,27.2
2019-06-26T07:03:06.437Z,27.2
2019-06-26T07:04:06.685Z,27.3
2019-06-26T07:05:06.119Z,27.3
2019-06-26T07:06:06.691Z,27.3
2019-06-26T07:07:05.903Z,27.3
2019-06-26T07:08:07.176Z,27.3
2019-06-26T07:09:06.737Z,27.3
2019-06-26T07:10:07.252Z,27.3
2019-06-26T07:11:06.845Z,27.3
2019-06-26T07:12:06.179Z,27.4
2019-06-26T07:13:06.157Z,27.4
2019-06-26T07:14:06.715Z,27.4
2019-06-26T07:15:06.164Z,27.4
2019-06-26T07:16:06.438Z,27.3
2019-06-26T07:17:22.973Z,27.3
2019-06-26T07:18:06.275Z,27.3
2019-06-26T07:19:06.570Z,27.3
2019-06-26T07:20:07.050Z,27.4
2019-06-26T07:21:06.476Z,27.4
2019-06-26T07:22:10.281Z,27.4
2019-06-26T07:23:06.567Z,27.4
2019-06-26T07:24:06.883Z,27.5
2019-06-26T07:25:06.356Z,27.5
2019-06-26T07:26:06.783Z,27.5
2019-06-26T07:27:06.469Z,27.5
2019-06-26T07:28:06.818Z,27.5
2019-06-26T07:29:06.195Z,27.6
2019-06-26T07:30:07.085Z,27.5
2019-06-26T07:31:06.344Z,27.6
2019-06-26T07:32:06.615Z,27.6
2019-06-26T07:33:05.956Z,27.6
2019-06-26T07:34:06.145Z,27.6
2019-06-26T07:35:06.619Z,27.7
2019-06-26T07:36:06.900Z,27.7
2019-06-26T07:37:06.139Z,27.7
2019-06-26T07:38:06.527Z,27.7
2019-06-26T07:39:07.006Z,27.8
2019-06-26T07:40:06.490Z,27.8
2019-06-26T07:41:06.943Z,27.8
2019-06-26T07:42:06.390Z,27.8
2019-06-26T07:43:06.983Z,27.8
2019-06-26T07:44:06.476Z,27.8
2019-06-26T07:45:06.949Z,27.8
2019-06-26T07:46:06.454Z,27.8
2019-06-26T07:47:41.754Z,27.8
2019-06-26T07:48:06.478Z,27.8
2019-06-26T07:49:06.778Z,27.8
2019-06-26T07:50:06.498Z,27.8
2019-06-26T07:51:06.823Z,27.8
2019-06-26T07:52:06.120Z,27.9
2019-06-26T07:53:06.352Z,27.9
2019-06-26T07:54:06.624Z,27.9
2019-06-26T07:55:06.245Z,27.9
2019-06-26T07:56:06.561Z,27.9
2019-06-26T07:57:05.925Z,27.8
2019-06-26T07:58:06.633Z,27.8
2019-06-26T07:59:05.966Z,27.9
2019-06-26T08:00:08.654Z,27.9
2019-06-26T08:01:06.020Z,27.9
2019-06-26T08:02:06.318Z,27.9
2019-06-26T08:03:07.587Z,27.9
2019-06-26T08:04:06.825Z,28
2019-06-26T08:05:06.258Z,28
2019-06-26T08:06:06.530Z,28.1
2019-06-26T08:07:06.092Z,28.1
2019-06-26T08:08:07.311Z,28.2
2019-06-26T08:09:15.390Z,28.2
2019-06-26T08:10:16.649Z,28.2
2019-06-26T08:12:06.893Z,28.2
2019-06-26T08:13:06.442Z,28.2
2019-06-26T08:14:06.843Z,28.2
2019-06-26T08:15:06.471Z,28.3
2019-06-26T08:16:06.833Z,28.2
2019-06-26T08:17:06.548Z,28.2
2019-06-26T08:18:06.927Z,28.2
2019-06-26T08:19:06.282Z,28.2
2019-06-26T08:20:06.964Z,28.2
2019-06-26T08:21:15.741Z,28.2
2019-06-26T08:22:06.028Z,28.3
2019-06-26T08:23:06.330Z,28.3
2019-06-26T08:24:06.598Z,28.3
2019-06-26T08:25:07.055Z,28.3
2019-06-26T08:26:06.385Z,28.4
2019-06-26T08:27:06.768Z,28.4
2019-06-26T08:28:06.272Z,28.3
2019-06-26T08:29:06.694Z,28.4
2019-06-26T08:30:06.404Z,28.4
2019-06-26T08:31:06.753Z,28.4
2019-06-26T08:32:06.134Z,28.4
2019-06-26T08:33:06.456Z,28.4
2019-06-26T08:34:06.933Z,28.4
2019-06-26T08:35:06.343Z,28.5
2019-06-26T08:36:06.763Z,28.5
2019-06-26T08:37:06.101Z,28.5
2019-06-26T08:38:17.140Z,28.5
2019-06-26T08:39:06.568Z,28.5
2019-06-26T08:40:07.158Z,28.5
2019-06-26T08:41:06.432Z,28.5
2019-06-26T08:42:06.808Z,28.6
2019-06-26T08:43:06.152Z,28.6
2019-06-26T08:44:06.551Z,28.6
2019-06-26T08:45:07.095Z,28.6
2019-06-26T08:46:06.420Z,28.6
2019-06-26T08:47:06.771Z,28.7
2019-06-26T08:48:40.777Z,28.7
2019-06-26T08:49:06.189Z,28.7
2019-06-26T08:50:07.175Z,28.7
2019-06-26T08:51:06.524Z,28.8
2019-06-26T08:52:06.867Z,28.8
2019-06-26T08:53:06.234Z,28.8
2019-06-26T08:54:07.778Z,28.9
2019-06-26T08:55:06.244Z,28.9
2019-06-26T08:56:06.538Z,28.8
2019-06-26T08:57:05.931Z,28.8
2019-06-26T08:58:06.260Z,28.8
2019-06-26T08:59:06.655Z,28.8
2019-06-26T09:00:06.311Z,28.9
2019-06-26T09:01:06.417Z,28.9
2019-06-26T09:02:06.734Z,28.9
2019-06-26T09:03:06.035Z,29
2019-06-26T09:04:06.524Z,29
2019-06-26T09:05:06.959Z,29
2019-06-26T09:06:06.278Z,29
2019-06-26T09:07:06.690Z,29
2019-06-26T09:08:06.166Z,29.1
2019-06-26T09:09:06.852Z,29.1
2019-06-26T09:10:06.486Z,29.1
2019-06-26T09:11:06.844Z,29.2
2019-06-26T09:12:06.194Z,29.2
2019-06-26T09:13:06.462Z,29.2
2019-06-26T09:14:06.808Z,29.2
2019-06-26T09:15:06.546Z,29.2
2019-06-26T09:16:06.803Z,29.2
2019-06-26T09:17:06.233Z,29.2
2019-06-26T09:18:06.487Z,29.2
2019-06-26T09:19:06.801Z,29.2
2019-06-26T09:20:06.367Z,29.2
2019-06-26T09:21:06.610Z,29.2
2019-06-26T09:22:05.919Z,29.2
2019-06-26T09:23:06.264Z,29.2
2019-06-26T09:24:06.545Z,29.3
2019-06-26T09:25:24.099Z,29.2
2019-06-26T09:26:06.575Z,29.2
2019-06-26T09:27:07.028Z,29.2
2019-06-26T09:28:06.394Z,29.2
2019-06-26T09:29:06.905Z,29.2
2019-06-26T09:30:06.751Z,29.2
2019-06-26T09:31:06.225Z,29.3
2019-06-26T09:32:06.483Z,29.3
2019-06-26T09:33:06.012Z,29.4
2019-06-26T09:34:06.465Z,29.4
2019-06-26T09:35:06.832Z,29.4
2019-06-26T09:36:09.913Z,29.4
2019-06-26T09:37:06.269Z,29.5
2019-06-26T09:38:06.147Z,29.5
2019-06-26T09:39:06.593Z,29.4
2019-06-26T09:40:07.117Z,29.4
2019-06-26T09:41:06.454Z,29.5
2019-06-26T09:42:06.702Z,29.5
2019-06-26T09:43:06.110Z,29.5
2019-06-26T09:44:06.547Z,29.5
2019-06-26T09:45:06.973Z,29.4
2019-06-26T09:46:06.597Z,29.3
2019-06-26T09:47:05.975Z,29.3
2019-06-26T09:48:06.333Z,29.4
2019-06-26T09:49:06.779Z,29.4
2019-06-26T09:50:06.342Z,29.4
2019-06-26T09:51:06.832Z,29.4
2019-06-26T09:52:06.170Z,29.5
2019-06-26T09:53:08.441Z,29.5
2019-06-26T09:54:06.704Z,29.6
2019-06-26T09:55:06.212Z,29.6
2019-06-26T09:56:06.974Z,29.6
2019-06-26T09:57:06.271Z,29.7
2019-06-26T09:58:06.674Z,29.7
2019-06-26T09:59:06.325Z,29.8
2019-06-26T10:00:06.745Z,29.8
2019-06-26T10:01:06.841Z,29.8
2019-06-26T10:02:06.430Z,29.8
2019-06-26T10:03:06.706Z,29.8
2019-06-26T10:04:06.192Z,29.9
2019-06-26T10:05:06.627Z,29.9
2019-06-26T10:06:06.052Z,29.9
2019-06-26T10:07:06.355Z,29.9
2019-06-26T10:08:06.615Z,30
2019-06-26T10:09:06.659Z,30
2019-06-26T10:10:06.275Z,30
2019-06-26T10:11:06.614Z,30
2019-06-26T10:12:06.021Z,30
2019-06-26T10:13:06.470Z,30
2019-06-26T10:14:06.948Z,30
2019-06-26T10:15:06.275Z,30
2019-06-26T10:16:06.758Z,29.9
2019-06-26T10:17:06.209Z,29.9
2019-06-26T10:18:06.514Z,29.9
2019-06-26T10:19:13.206Z,29.9
2019-06-26T10:20:06.758Z,29.9
2019-06-26T10:21:06.150Z,30
2019-06-26T10:22:06.419Z,30
2019-06-26T10:23:06.707Z,30.1
2019-06-26T10:24:06.178Z,30.1
2019-06-26T10:25:10.146Z,30.1
2019-06-26T10:26:06.599Z,30.1
2019-06-26T10:27:06.032Z,30.1
2019-06-26T10:28:06.346Z,30.1
2019-06-26T10:29:05.966Z,30.2
2019-06-26T10:30:06.574Z,30.2
2019-06-26T10:31:06.874Z,30.2
2019-06-26T10:32:06.555Z,30.2
2019-06-26T10:33:05.939Z,30.3
2019-06-26T10:34:09.771Z,30.4
2019-06-26T10:35:06.657Z,30.6
2019-06-26T10:36:06.203Z,31
2019-06-26T10:37:06.499Z,31.4
2019-06-26T10:38:06.723Z,31.7
2019-06-26T10:39:06.347Z,32
2019-06-26T10:40:07.197Z,32.4
2019-06-26T10:41:06.722Z,32.6
2019-06-26T10:42:05.954Z,32.8
2019-06-26T10:43:06.508Z,33.1
2019-06-26T10:44:06.863Z,33.3
2019-06-26T10:45:06.437Z,33.5
2019-06-26T10:46:06.145Z,33.6
2019-06-26T10:47:06.463Z,33.7
2019-06-26T10:48:06.842Z,33.9
2019-06-26T10:49:06.155Z,33.9
2019-06-26T10:50:07.118Z,33.9
2019-06-26T10:51:06.382Z,33.9
2019-06-26T10:52:06.666Z,33.9
2019-06-26T10:53:05.976Z,34
2019-06-26T10:54:06.276Z,34.1
2019-06-26T10:55:06.742Z,34.3
2019-06-26T10:56:06.055Z,34.4
2019-06-26T10:57:06.332Z,34.5
2019-06-26T10:58:06.597Z,34.4
2019-06-26T10:59:05.997Z,34.3
2019-06-26T11:00:11.860Z,34.3
2019-06-26T11:01:06.155Z,34.2
2019-06-26T11:02:06.549Z,34.3
2019-06-26T11:03:07.317Z,34.4
2019-06-26T11:04:06.902Z,34.5
2019-06-26T11:05:07.242Z,34.6
2019-06-26T11:06:06.662Z,34.7
2019-06-26T11:07:06.538Z,34.7
2019-06-26T11:08:05.961Z,34.7
2019-06-26T11:09:06.496Z,34.8
2019-06-26T11:10:07.158Z,34.9
2019-06-26T11:11:06.473Z,35
2019-06-26T11:12:06.707Z,35
2019-06-26T11:13:06.017Z,35.1
2019-06-26T11:14:06.432Z,35.2
2019-06-26T11:15:06.999Z,35.2
2019-06-26T11:16:06.378Z,35.2
2019-06-26T11:17:06.679Z,35.2
2019-06-26T11:18:06.053Z,35.2
2019-06-26T11:19:06.340Z,35.2
2019-06-26T11:20:07.166Z,35.1
2019-06-26T11:21:06.623Z,35.1
2019-06-26T11:22:06.156Z,35.1
2019-06-26T11:23:06.489Z,35.1
2019-06-26T11:24:06.754Z,35.2
2019-06-26T11:25:06.207Z,35.2
2019-06-26T11:26:06.539Z,35.3
2019-06-26T11:27:06.874Z,35.3
2019-06-26T11:28:06.227Z,35.3
2019-06-26T11:29:06.617Z,35.4
2019-06-26T11:30:06.378Z,35.3
2019-06-26T11:31:06.849Z,35.2
2019-06-26T11:32:09.369Z,35
2019-06-26T11:33:06.901Z,34.9
2019-06-26T11:34:06.177Z,34.9
2019-06-26T11:35:06.618Z,34.9
2019-06-26T11:36:06.084Z,34.9
2019-06-26T11:37:07.634Z,35
2019-06-26T11:38:05.930Z,34.8
2019-06-26T11:39:06.237Z,34.4
2019-06-26T11:40:06.812Z,34.1
2019-06-26T11:41:06.223Z,33.7
2019-06-26T11:42:06.501Z,33.3
2019-06-26T11:43:06.803Z,32.9
2019-06-26T11:44:06.490Z,32.5
2019-06-26T11:45:07.058Z,32.2
2019-06-26T11:46:07.021Z,32
2019-06-26T11:47:06.517Z,31.7
2019-06-26T11:48:06.904Z,31.5
2019-06-26T11:49:06.190Z,31.3
2019-06-26T11:50:07.047Z,31.1
2019-06-26T11:51:07.516Z,31
2019-06-26T11:52:05.930Z,30.9
2019-06-26T11:53:06.724Z,30.8
2019-06-26T11:54:06.344Z,30.8
2019-06-26T11:55:07.092Z,30.7
2019-06-26T11:56:06.832Z,30.7
2019-06-26T11:57:06.488Z,30.6
2019-06-26T11:58:06.993Z,30.5
2019-06-26T11:59:06.827Z,30.5
2019-06-26T12:00:06.959Z,30.5
2019-06-26T12:01:06.753Z,30.4
2019-06-26T12:02:06.464Z,30.4
2019-06-26T12:03:07.154Z,30.4
2019-06-26T12:04:06.422Z,30.4
2019-06-26T12:05:07.535Z,30.4
2019-06-26T12:06:21.044Z,30.3
2019-06-26T12:07:06.517Z,30.3
2019-06-26T12:08:05.932Z,30.2
2019-06-26T12:09:06.531Z,30.2
2019-06-26T12:10:07.348Z,30.1
2019-06-26T12:11:06.382Z,29.9
2019-06-26T12:12:06.748Z,29.9
2019-06-26T12:13:07.496Z,29.8
2019-06-26T12:14:06.824Z,29.7
2019-06-26T12:15:06.503Z,29.7
2019-06-26T12:16:05.989Z,29.7
2019-06-26T12:17:06.355Z,29.7
2019-06-26T12:18:06.647Z,29.8
2019-06-26T12:19:06.018Z,29.9
2019-06-26T12:20:21.545Z,30
2019-06-26T12:21:06.892Z,30
2019-06-26T12:22:06.252Z,29.9
2019-06-26T12:23:06.554Z,29.7
2019-06-26T12:24:06.029Z,29.6
2019-06-26T12:25:07.141Z,29.5
2019-06-26T12:26:06.806Z,29.4
2019-06-26T12:27:06.313Z,29.4
2019-06-26T12:28:06.652Z,29.4
2019-06-26T12:29:05.956Z,29.5
2019-06-26T12:30:06.559Z,29.7
2019-06-26T12:31:06.853Z,29.7
2019-06-26T12:32:06.352Z,29.9
2019-06-26T12:33:06.774Z,29.9
2019-06-26T12:34:06.038Z,29.9
2019-06-26T12:35:06.672Z,29.8
2019-06-26T12:36:08.714Z,29.7
2019-06-26T12:37:06.735Z,29.7
2019-06-26T12:38:06.120Z,29.7
2019-06-26T12:39:06.747Z,29.7
2019-06-26T12:40:06.628Z,29.8
2019-06-26T12:41:06.292Z,29.9
2019-06-26T12:42:06.583Z,29.8
2019-06-26T12:43:05.918Z,29.8
2019-06-26T12:44:06.378Z,29.6
2019-06-26T12:45:07.324Z,29.5
2019-06-26T12:46:06.606Z,29.3
2019-06-26T12:47:05.966Z,29.1
2019-06-26T12:48:06.286Z,29
2019-06-26T12:49:06.568Z,28.9
2019-06-26T12:50:07.611Z,28.7
2019-06-26T12:51:06.047Z,28.7
2019-06-26T12:52:06.359Z,28.7
2019-06-26T12:53:06.734Z,28.6
2019-06-26T12:54:06.120Z,28.6
2019-06-26T12:55:06.629Z,28.6
2019-06-26T12:56:05.951Z,28.7
2019-06-26T12:57:06.411Z,28.9
2019-06-26T12:58:20.813Z,29.3
2019-06-26T12:59:06.154Z,29.3
2019-06-26T13:00:06.830Z,29.4
2019-06-26T13:01:06.258Z,29.5
2019-06-26T13:02:06.617Z,29.5
2019-06-26T13:03:06.630Z,29.5
2019-06-26T13:04:05.952Z,29.4
2019-06-26T13:05:06.415Z,29.4
2019-06-26T13:06:06.696Z,29.3
2019-06-26T13:07:06.255Z,29.3
2019-06-26T13:08:06.993Z,29.3
2019-06-26T13:09:06.604Z,29.2
2019-06-26T13:10:10.406Z,29.3
2019-06-26T13:11:07.365Z,29.3
2019-06-26T13:14:06.159Z,29.5
2019-06-26T13:15:06.992Z,29.4
2019-06-26T13:16:06.222Z,29.4
2019-06-26T13:17:06.677Z,29.5
2019-06-26T13:18:06.042Z,29.5
2019-06-26T13:19:06.507Z,29.6
2019-06-26T13:20:11.089Z,29.6
2019-06-26T13:21:08.396Z,29.6
2019-06-26T13:22:07.026Z,29.6
2019-06-26T13:23:06.390Z,29.7
2019-06-26T13:24:06.835Z,29.9
2019-06-26T13:25:06.255Z,30.2
2019-06-26T13:26:06.775Z,30.5
2019-06-26T13:27:06.157Z,30.6
2019-06-26T13:28:06.510Z,30.7
2019-06-26T13:29:09.720Z,30.9